Time;durP1;ratioP1;P1;durP2;ratioP2;P2;SDS_P1;SDS_P2;PMS_P1;PMS_P2;Temp;Humidity;BMP_temperature;BMP_pressure;BME280_temperature;BME280_humidity;BME280_pressure;Samples;Min_cycle;Max_cycle;Signal;HPM_P1;HPM_P2
2022/10/01 00:00:53;;;;;;;9.15;5.75;;;11.20;99.90;;;;;;5052140;28;20044;-80
2022/10/01 00:03:20;;;;;;;9.45;5.72;;;11.20;99.90;;;;;;5051132;28;20044;-80
2022/10/01 00:05:45;;;;;;;13.07;5.85;;;11.10;99.90;;;;;;5051536;28;20112;-77
2022/10/01 00:08:15;;;;;;;7.65;5.72;;;11.10;99.90;;;;;;5033843;28;20423;-82
2022/10/01 00:10:42;;;;;;;10.43;6.45;;;11.20;99.90;;;;;;5052393;28;20356;-85
2022/10/01 00:13:09;;;;;;;9.43;6.05;;;11.10;99.90;;;;;;5051754;28;20095;-81
2022/10/01 00:15:39;;;;;;;11.57;6.63;;;11.10;99.90;;;;;;5051838;28;20056;-80
2022/10/01 00:18:06;;;;;;;10.88;6.30;;;11.10;99.90;;;;;;5051422;28;20063;-77
2022/10/01 00:20:31;;;;;;;9.48;6.85;;;11.10;99.90;;;;;;5052058;28;20467;-80
2022/10/01 00:22:57;;;;;;;14.55;7.22;;;11.10;99.90;;;;;;5033978;28;20119;-80
2022/10/01 00:25:24;;;;;;;9.13;6.75;;;11.10;99.90;;;;;;5051845;28;20108;-78
2022/10/01 00:27:50;;;;;;;9.07;6.15;;;11.10;99.90;;;;;;5051621;28;20040;-78
2022/10/01 00:30:16;;;;;;;11.43;7.10;;;11.00;99.90;;;;;;5033846;28;20494;-82
2022/10/01 00:32:42;;;;;;;14.07;7.22;;;11.00;99.90;;;;;;5033619;28;20048;-79
2022/10/01 00:35:08;;;;;;;9.88;7.32;;;11.00;99.90;;;;;;5033191;28;20531;-77
2022/10/01 00:37:37;;;;;;;12.10;8.18;;;11.00;99.90;;;;;;5033620;28;20060;-89
2022/10/01 00:40:05;;;;;;;10.23;7.82;;;11.50;99.90;;;;;;5033403;28;20049;-77
2022/10/01 00:42:30;;;;;;;14.52;8.13;;;11.00;99.90;;;;;;5033355;28;20095;-77
2022/10/01 00:44:57;;;;;;;9.77;7.93;;;11.00;99.90;;;;;;5032662;28;20056;-78
2022/10/01 00:47:30;;;;;;;9.93;7.63;;;11.00;99.90;;;;;;5051157;28;20098;-77
2022/10/01 00:50:05;;;;;;;8.75;7.82;;;11.00;99.90;;;;;;5051671;28;20048;-76
2022/10/01 00:52:33;;;;;;;12.00;7.63;;;10.90;99.90;;;;;;5053051;28;20128;-80
2022/10/01 00:55:19;;;;;;;10.75;7.88;;;11.00;99.90;;;;;;5033606;28;20565;-80
2022/10/01 00:57:45;;;;;;;10.27;8.30;;;10.90;99.90;;;;;;5052247;28;20120;-78
2022/10/01 01:00:13;;;;;;;12.35;8.60;;;10.90;99.90;;;;;;5052764;28;20048;-83
2022/10/01 01:02:40;;;;;;;11.80;8.32;;;10.90;99.90;;;;;;5035006;28;20056;-82
2022/10/01 01:05:07;;;;;;;11.40;7.70;;;11.30;99.90;;;;;;5051456;28;20164;-81
2022/10/01 01:07:35;;;;;;;13.73;8.20;;;10.90;99.90;;;;;;5017188;28;20049;-79
2022/10/01 01:10:03;;;;;;;10.18;7.93;;;10.90;99.90;;;;;;5033086;28;20048;-82
2022/10/01 01:12:29;;;;;;;10.57;7.72;;;10.90;99.90;;;;;;5051014;28;20049;-86
2022/10/01 01:15:13;;;;;;;10.20;8.48;;;10.90;99.90;;;;;;5050417;28;20134;-83
2022/10/01 01:18:04;;;;;;;10.65;6.90;;;10.90;99.90;;;;;;5050726;28;20562;-83
2022/10/01 01:20:36;;;;;;;12.15;7.20;;;10.90;99.90;;;;;;5050380;28;20458;-83
2022/10/01 01:23:14;;;;;;;13.35;7.60;;;10.90;99.90;;;;;;5032639;28;20077;-82
2022/10/01 01:25:49;;;;;;;9.60;7.55;;;10.90;99.90;;;;;;5050810;28;20417;-82
2022/10/01 01:28:39;;;;;;;10.98;7.68;;;10.90;99.90;;;;;;5032914;28;20571;-81
2022/10/01 01:31:09;;;;;;;10.93;7.72;;;10.90;99.90;;;;;;5032686;28;20495;-82
2022/10/01 01:33:37;;;;;;;12.52;7.88;;;11.10;99.90;;;;;;5050732;28;20045;-83
2022/10/01 01:36:08;;;;;;;13.82;7.82;;;11.30;99.90;;;;;;5031901;28;20057;-81
2022/10/01 01:38:44;;;;;;;10.00;7.43;;;11.00;99.90;;;;;;5050457;28;20047;-78
2022/10/01 01:41:11;;;;;;;9.77;7.50;;;10.80;99.90;;;;;;5050632;28;20045;-82
2022/10/01 01:43:41;;;;;;;12.02;7.80;;;10.80;99.90;;;;;;5050449;28;20033;-84
2022/10/01 01:46:09;;;;;;;11.40;7.88;;;10.80;99.90;;;;;;5050616;28;20041;-90
2022/10/01 01:48:37;;;;;;;10.32;7.10;;;11.20;99.90;;;;;;5032364;28;20044;-78
2022/10/01 01:51:16;;;;;;;11.45;7.40;;;10.80;99.90;;;;;;5032498;28;20049;-82
2022/10/01 01:53:42;;;;;;;8.18;6.55;;;10.80;99.90;;;;;;5050164;28;20041;-81
2022/10/01 01:56:08;;;;;;;9.70;6.85;;;10.80;99.90;;;;;;5032722;28;20431;-81
2022/10/01 01:58:36;;;;;;;8.65;6.60;;;10.80;99.90;;;;;;5032076;28;20064;-78
2022/10/01 02:01:02;;;;;;;9.68;6.30;;;10.80;99.90;;;;;;5048209;28;20052;-83
2022/10/01 02:03:29;;;;;;;9.20;6.70;;;10.80;99.90;;;;;;5031762;28;20056;-79
2022/10/01 02:06:05;;;;;;;9.95;7.00;;;10.80;99.90;;;;;;5049496;28;20061;-78
2022/10/01 02:08:40;;;;;;;8.35;6.55;;;10.80;99.90;;;;;;5049445;28;20117;-81
2022/10/01 02:11:08;;;;;;;;;;;10.80;99.90;;;;;;5031580;28;20044;-78
2022/10/01 02:13:49;;;;;;;10.20;6.57;;;10.80;99.90;;;;;;5031281;28;19936;-81
2022/10/01 02:16:29;;;;;;;8.40;5.75;;;10.80;99.90;;;;;;5031507;28;20052;-80
2022/10/01 02:19:08;;;;;;;8.75;5.55;;;10.70;99.90;;;;;;5049441;28;20132;-76
2022/10/01 02:21:46;;;;;;;7.22;5.55;;;10.80;99.90;;;;;;5049509;28;20053;-77
2022/10/01 02:24:42;;;;;;;6.63;4.88;;;11.10;99.90;;;;;;5031281;28;20353;-80
2022/10/01 02:27:18;;;;;;;8.30;5.55;;;10.80;99.90;;;;;;5049247;28;20036;-82
2022/10/01 02:29:47;;;;;;;8.85;5.63;;;10.80;99.90;;;;;;5030874;28;20041;-82
2022/10/01 02:32:16;;;;;;;6.88;5.03;;;10.80;99.90;;;;;;5049620;28;20049;-77
2022/10/01 02:34:44;;;;;;;6.68;4.50;;;10.80;99.90;;;;;;5049319;28;20128;-81
2022/10/01 02:37:11;;;;;;;7.05;4.68;;;10.80;99.90;;;;;;5049560;28;20465;-76
2022/10/01 02:39:40;;;;;;;7.78;4.85;;;10.80;99.90;;;;;;5048616;28;20037;-77
2022/10/01 02:42:08;;;;;;;7.00;4.75;;;10.80;99.90;;;;;;5049099;28;20069;-84
2022/10/01 02:44:39;;;;;;;6.35;4.85;;;10.80;99.90;;;;;;5049289;28;20107;-79
2022/10/01 02:47:06;;;;;;;5.75;4.50;;;10.80;99.90;;;;;;5031590;28;20041;-77
2022/10/01 02:49:34;;;;;;;5.70;3.95;;;10.80;99.90;;;;;;5049227;28;20086;-77
2022/10/01 02:52:05;;;;;;;6.50;4.28;;;10.90;99.90;;;;;;5049551;28;20116;-78
2022/10/01 02:54:47;;;;;;;7.57;5.00;;;10.90;99.90;;;;;;5031171;28;20053;-80
2022/10/01 02:57:26;;;;;;;6.07;4.03;;;10.90;99.90;;;;;;5049930;28;20091;-76
2022/10/01 02:59:58;;;;;;;5.43;3.95;;;10.90;99.90;;;;;;5048823;28;20049;-79
2022/10/01 03:02:26;;;;;;;6.05;3.85;;;10.90;99.90;;;;;;5031392;28;20045;-80
2022/10/01 03:04:55;;;;;;;5.65;3.95;;;11.00;99.90;;;;;;5049270;28;20060;-79
2022/10/01 03:07:20;;;;;;;6.07;4.53;;;10.90;99.90;;;;;;5049346;28;20498;-83
2022/10/01 03:09:46;;;;;;;5.53;4.25;;;10.90;99.90;;;;;;5048900;28;20041;-80
2022/10/01 03:12:12;;;;;;;6.03;3.95;;;11.00;99.90;;;;;;5049581;28;20514;-78
2022/10/01 03:14:40;;;;;;;5.72;4.05;;;11.00;99.90;;;;;;5052128;28;20595;-79
2022/10/01 03:17:07;;;;;;;5.35;3.80;;;10.90;99.90;;;;;;5053141;28;20049;-77
2022/10/01 03:19:32;;;;;;;6.57;3.63;;;10.90;99.90;;;;;;5034924;28;20407;-83
2022/10/01 03:21:58;;;;;;;6.05;3.90;;;11.00;99.90;;;;;;5034757;28;20041;-77
2022/10/01 03:24:24;;;;;;;4.47;3.30;;;11.10;99.90;;;;;;5053018;28;20111;-80
2022/10/01 03:26:50;;;;;;;6.35;3.70;;;11.00;99.90;;;;;;5052602;28;20045;-76
2022/10/01 03:29:16;;;;;;;4.28;3.22;;;11.00;99.90;;;;;;5052726;28;20159;-81
2022/10/01 03:31:41;;;;;;;5.22;3.65;;;11.00;99.90;;;;;;5035086;28;20136;-78
2022/10/01 03:34:07;;;;;;;3.58;2.85;;;11.00;99.90;;;;;;5052644;28;20083;-78
2022/10/01 03:36:33;;;;;;;4.75;3.28;;;11.10;99.90;;;;;;5036329;28;20045;-76
2022/10/01 03:38:59;;;;;;;5.22;3.25;;;11.00;99.90;;;;;;5035816;28;20056;-74
2022/10/01 03:41:24;;;;;;;5.63;3.30;;;11.10;99.90;;;;;;5052589;28;20539;-80
2022/10/01 03:43:50;;;;;;;4.55;2.65;;;11.00;99.90;;;;;;5034363;28;20044;-77
2022/10/01 03:46:16;;;;;;;3.35;2.47;;;11.10;99.90;;;;;;5052818;28;20416;-78
2022/10/01 03:48:42;;;;;;;3.55;2.38;;;11.10;99.90;;;;;;5034714;28;20063;-79
2022/10/01 03:51:07;;;;;;;3.80;2.50;;;11.20;99.90;;;;;;5052760;28;20041;-77
2022/10/01 03:53:33;;;;;;;4.03;2.20;;;11.10;99.90;;;;;;5052214;28;20067;-77
2022/10/01 03:55:59;;;;;;;3.95;2.35;;;11.10;99.90;;;;;;5034417;28;20234;-77
2022/10/01 03:58:25;;;;;;;3.22;2.15;;;11.10;99.90;;;;;;5052193;28;20056;-77
2022/10/01 04:00:54;;;;;;;5.25;2.00;;;11.50;99.90;;;;;;5034522;28;20049;-77
2022/10/01 04:03:19;;;;;;;3.67;2.33;;;11.20;99.90;;;;;;5052137;28;20377;-77
2022/10/01 04:05:45;;;;;;;3.92;1.85;;;11.20;99.90;;;;;;5037579;28;20052;-80
2022/10/01 04:08:12;;;;;;;3.25;2.08;;;11.20;99.90;;;;;;5072435;28;20399;-80
2022/10/01 04:10:37;;;;;;;2.30;1.73;;;11.40;99.90;;;;;;5071682;28;20131;-79
2022/10/01 04:13:04;;;;;;;3.80;2.00;;;11.10;99.90;;;;;;5071353;28;20139;-77
2022/10/01 04:15:31;;;;;;;3.42;1.88;;;11.20;99.90;;;;;;5071471;28;20465;-80
2022/10/01 04:17:57;;;;;;;3.63;2.10;;;11.20;99.90;;;;;;5071808;28;20056;-79
2022/10/01 04:20:23;;;;;;;3.28;2.22;;;11.60;99.90;;;;;;5071477;28;20052;-78
2022/10/01 04:22:48;;;;;;;2.97;1.92;;;11.20;99.90;;;;;;5071653;28;20430;-78
2022/10/01 04:25:14;;;;;;;3.25;2.03;;;11.50;99.90;;;;;;5070903;28;20055;-78
2022/10/01 04:27:41;;;;;;;3.75;2.10;;;11.20;99.90;;;;;;5053556;28;20403;-77
2022/10/01 04:30:08;;;;;;;3.15;2.03;;;11.20;99.90;;;;;;5070910;28;20052;-78
2022/10/01 04:32:34;;;;;;;3.45;2.00;;;11.30;99.90;;;;;;5053330;28;20044;-79
2022/10/01 04:35:02;;;;;;;2.80;2.00;;;11.30;99.90;;;;;;5054635;28;20052;-79
2022/10/01 04:37:27;;;;;;;4.00;2.00;;;11.60;99.90;;;;;;5053634;28;20550;-78
2022/10/01 04:39:53;;;;;;;3.67;1.98;;;11.40;99.90;;;;;;5071997;28;20084;-78
2022/10/01 04:42:20;;;;;;;17.27;3.05;;;11.30;99.90;;;;;;5072336;28;20058;-80
2022/10/01 04:44:46;;;;;;;3.55;2.20;;;11.40;99.90;;;;;;5072576;28;20048;-86
2022/10/01 04:47:12;;;;;;;3.15;1.98;;;11.40;99.90;;;;;;5054523;28;20093;-77
2022/10/01 04:49:38;;;;;;;5.18;2.25;;;11.40;99.90;;;;;;5071996;28;20411;-83
2022/10/01 04:52:04;;;;;;;3.50;2.13;;;11.40;99.90;;;;;;5037186;28;20123;-77
2022/10/01 04:54:32;;;;;;;3.58;2.30;;;11.50;99.90;;;;;;5071291;28;20127;-79
2022/10/01 04:56:58;;;;;;;3.45;2.20;;;11.50;99.90;;;;;;5071412;28;20120;-77
2022/10/01 04:59:24;;;;;;;3.42;2.30;;;11.50;99.90;;;;;;5052871;28;20098;-78
2022/10/01 05:01:50;;;;;;;3.50;2.42;;;11.50;99.90;;;;;;5070692;28;20049;-79
2022/10/01 05:04:16;;;;;;;5.78;2.10;;;11.40;99.90;;;;;;5071473;28;20040;-91
2022/10/01 05:06:41;;;;;;;5.35;2.78;;;11.50;99.90;;;;;;5071368;28;20062;-88
2022/10/01 05:09:07;;;;;;;3.60;2.53;;;11.50;99.90;;;;;;5053108;28;20120;-84
2022/10/01 05:11:37;;;;;;;4.53;2.60;;;11.60;99.90;;;;;;5070731;28;20048;-83
2022/10/01 05:14:03;;;;;;;3.33;2.70;;;11.50;99.90;;;;;;5070619;28;20075;-77
2022/10/01 05:16:29;;;;;;;3.95;2.63;;;11.70;99.90;;;;;;5070234;28;20144;-77
2022/10/01 05:18:55;;;;;;;4.72;3.15;;;11.80;99.90;;;;;;5071053;28;20097;-80
2022/10/01 05:21:21;;;;;;;4.80;2.40;;;11.70;99.90;;;;;;5070858;28;20464;-76
2022/10/01 05:23:46;;;;;;;4.97;2.95;;;11.50;99.90;;;;;;5052774;28;20040;-83
2022/10/01 05:26:12;;;;;;;4.97;3.22;;;11.60;99.90;;;;;;5052839;28;20472;-79
2022/10/01 05:28:43;;;;;;;7.40;3.90;;;11.70;99.90;;;;;;5052683;28;20045;-85
2022/10/01 05:31:09;;;;;;;5.88;3.33;;;11.70;99.90;;;;;;5070593;28;20041;-84
2022/10/01 05:33:35;;;;;;;5.13;3.40;;;11.60;99.90;;;;;;5071072;28;20047;-89
2022/10/01 05:36:02;;;;;;;6.95;3.65;;;11.60;99.90;;;;;;5070859;28;20044;-86
2022/10/01 05:38:27;;;;;;;8.52;3.95;;;11.80;99.90;;;;;;5052698;28;20269;-79
2022/10/01 05:40:53;;;;;;;5.68;3.72;;;11.70;99.90;;;;;;5052674;28;20172;-82
2022/10/01 05:43:20;;;;;;;8.43;4.07;;;11.70;99.90;;;;;;5052481;28;20528;-79
2022/10/01 05:45:45;;;;;;;5.38;4.10;;;11.70;99.90;;;;;;5052888;28;20042;-79
2022/10/01 05:48:11;;;;;;;8.02;4.10;;;11.70;99.90;;;;;;5052214;28;20067;-85
2022/10/01 05:50:39;;;;;;;8.43;4.43;;;11.70;99.90;;;;;;5052358;28;20419;-80
2022/10/01 05:53:06;;;;;;;7.70;4.85;;;11.70;99.90;;;;;;5070351;28;20056;-81
2022/10/01 05:55:36;;;;;;;6.20;5.05;;;11.70;99.90;;;;;;5052020;28;20045;-80
2022/10/01 05:58:06;;;;;;;7.10;4.80;;;11.80;99.90;;;;;;5070185;28;20040;-84
2022/10/01 06:00:33;;;;;;;9.20;5.65;;;11.80;99.90;;;;;;5052267;28;20088;-85
2022/10/01 06:03:01;;;;;;;10.52;5.53;;;11.80;99.90;;;;;;5070121;28;20407;-79
2022/10/01 06:05:28;;;;;;;10.80;6.55;;;11.80;99.90;;;;;;5070028;28;20064;-82
2022/10/01 06:07:53;;;;;;;11.35;5.85;;;11.90;99.90;;;;;;5069299;28;20102;-82
2022/10/01 06:10:20;;;;;;;7.30;5.57;;;11.80;99.90;;;;;;5069857;28;20450;-81
2022/10/01 06:12:47;;;;;;;13.27;6.00;;;11.90;99.90;;;;;;5069923;28;20041;-78
2022/10/01 06:15:13;;;;;;;10.27;6.38;;;11.90;99.90;;;;;;5051880;28;20109;-75
2022/10/01 06:17:43;;;;;;;9.63;6.80;;;12.00;99.90;;;;;;5069788;28;20040;-79
2022/10/01 06:20:14;;;;;;;13.50;7.00;;;12.00;99.90;;;;;;5069049;28;20080;-77
2022/10/01 06:22:41;;;;;;;13.02;6.47;;;12.00;99.90;;;;;;5069955;28;20048;-79
2022/10/01 06:25:09;;;;;;;10.85;6.03;;;12.00;99.90;;;;;;5069377;28;20048;-80
2022/10/01 06:27:35;;;;;;;9.15;6.75;;;12.00;99.90;;;;;;5069507;28;20487;-78
2022/10/01 06:30:01;;;;;;;12.00;6.60;;;12.10;99.90;;;;;;5051383;28;20140;-81
2022/10/01 06:32:26;;;;;;;15.52;6.53;;;12.20;99.90;;;;;;5069762;28;20464;-83
2022/10/01 06:34:52;;;;;;;9.32;6.43;;;12.20;99.90;;;;;;5069233;28;20040;-80
2022/10/01 06:37:18;;;;;;;8.50;6.78;;;12.30;99.90;;;;;;5051291;28;20045;-79
2022/10/01 06:39:43;;;;;;;13.75;6.82;;;12.30;99.90;;;;;;5069727;28;20081;-77
2022/10/01 06:42:09;;;;;;;9.90;7.20;;;12.40;99.90;;;;;;5069537;28;20048;-78
2022/10/01 06:44:35;;;;;;;13.50;7.00;;;12.30;99.90;;;;;;5069511;28;20080;-76
2022/10/01 06:47:01;;;;;;;12.63;6.50;;;12.40;99.90;;;;;;5051194;28;20095;-77
2022/10/01 06:49:26;;;;;;;13.73;7.28;;;12.40;99.90;;;;;;5069129;28;20044;-78
2022/10/01 06:54:36;;;;;;;12.45;7.00;;;12.60;99.90;;;;;;5051172;28;20057;-76
2022/10/01 06:57:02;;;;;;;13.73;7.20;;;12.60;99.90;;;;;;5069333;28;20195;-77
2022/10/01 06:59:27;;;;;;;14.65;7.07;;;12.70;99.90;;;;;;5069356;28;20075;-77
2022/10/01 07:01:53;;;;;;;13.55;6.53;;;12.80;99.90;;;;;;5049905;28;20064;-78
2022/10/01 07:04:20;;;;;;;14.50;6.63;;;12.90;99.90;;;;;;5069390;28;20051;-78
2022/10/01 07:06:45;;;;;;;11.35;6.28;;;12.90;99.90;;;;;;5050864;28;20186;-77
2022/10/01 07:09:11;;;;;;;17.10;6.00;;;12.90;99.90;;;;;;5069260;28;20560;-78
2022/10/01 07:11:40;;;;;;;12.73;5.60;;;12.90;99.90;;;;;;5069168;28;20083;-77
2022/10/01 07:14:09;;;;;;;12.10;4.07;;;13.00;99.90;;;;;;5069065;28;20045;-76
2022/10/01 07:16:38;;;;;;;8.60;3.42;;;13.10;99.90;;;;;;5051181;28;20165;-75
2022/10/01 07:19:03;;;;;;;9.50;3.67;;;13.00;99.90;;;;;;5069413;28;20044;-75
2022/10/01 07:21:29;;;;;;;8.55;2.85;;;13.00;99.90;;;;;;5050925;28;20128;-78
2022/10/01 07:23:54;;;;;;;9.93;2.50;;;13.10;99.90;;;;;;5051134;28;20794;-76
2022/10/01 07:26:20;;;;;;;8.45;2.58;;;13.00;99.90;;;;;;5068956;28;20044;-76
2022/10/01 07:28:46;;;;;;;10.88;2.83;;;13.10;99.90;;;;;;5068971;28;20056;-77
2022/10/01 07:31:11;;;;;;;7.95;2.30;;;13.00;99.90;;;;;;5056789;28;20040;-78
2022/10/01 07:33:37;;;;;;;10.27;2.60;;;12.90;99.90;;;;;;5050424;28;20040;-76
2022/10/01 07:36:05;;;;;;;8.05;2.50;;;13.10;99.90;;;;;;5068968;28;20115;-76
2022/10/01 07:38:34;;;;;;;6.82;2.30;;;13.00;99.90;;;;;;5068685;28;20094;-76
2022/10/01 07:41:04;;;;;;;8.65;2.55;;;13.00;99.90;;;;;;5050900;28;20056;-77
2022/10/01 07:43:31;;;;;;;8.00;2.60;;;13.10;99.90;;;;;;5068685;28;20041;-75
2022/10/01 07:45:58;;;;;;;9.90;2.67;;;13.20;99.90;;;;;;5068418;28;20548;-76
2022/10/01 07:48:25;;;;;;;14.27;3.10;;;13.20;99.90;;;;;;5069053;28;20400;-75
2022/10/01 07:50:51;;;;;;;15.48;3.35;;;13.30;99.90;;;;;;5051135;28;20762;-76
2022/10/01 07:53:18;;;;;;;7.85;2.40;;;13.40;99.90;;;;;;5068805;28;20051;-76
2022/10/01 07:55:44;;;;;;;13.65;3.08;;;13.50;99.90;;;;;;5067626;28;20102;-81
2022/10/01 07:58:10;;;;;;;11.95;2.97;;;13.40;99.90;;;;;;5068813;28;20076;-76
2022/10/01 08:00:37;;;;;;;12.98;3.22;;;13.50;99.90;;;;;;5072094;28;20052;-77
2022/10/01 08:03:03;;;;;;;9.98;2.80;;;13.60;99.90;;;;;;5073035;28;20048;-76
2022/10/01 08:05:31;;;;;;;11.35;3.28;;;13.80;99.90;;;;;;5066280;28;20049;-74
2022/10/01 08:08:02;;;;;;;13.02;2.65;;;13.80;99.90;;;;;;5044690;28;20135;-75
2022/10/01 08:10:28;;;;;;;9.65;2.45;;;13.90;99.90;;;;;;4998460;28;20102;-75
2022/10/01 08:13:07;;;;;;;12.18;2.33;;;13.90;99.90;;;;;;5014624;28;20053;-79
2022/10/01 08:15:33;;;;;;;13.40;2.55;;;14.00;99.90;;;;;;5032165;28;20096;-77
2022/10/01 08:18:05;;;;;;;9.88;2.05;;;14.10;99.90;;;;;;5032445;28;20482;-88
2022/10/01 08:20:31;;;;;;;12.70;1.52;;;14.10;99.90;;;;;;4998539;28;20057;-81
2022/10/01 08:23:05;;;;;;;8.98;1.80;;;14.20;99.90;;;;;;5032673;28;20053;-78
2022/10/01 08:25:31;;;;;;;11.70;1.80;;;14.30;99.90;;;;;;5032078;28;20401;-76
2022/10/01 08:27:56;;;;;;;9.88;2.05;;;14.40;99.90;;;;;;5039029;28;20597;-78
2022/10/01 08:30:26;;;;;;;14.07;2.03;;;14.60;99.90;;;;;;5053112;28;20048;-77
2022/10/01 08:32:56;;;;;;;14.38;2.38;;;14.80;99.90;;;;;;5052946;28;20052;-79
2022/10/01 08:35:23;;;;;;;14.43;2.40;;;15.00;99.90;;;;;;5052249;28;20056;-81
2022/10/01 08:37:49;;;;;;;10.35;1.90;;;15.20;99.90;;;;;;5052143;28;20044;-81
2022/10/01 08:40:18;;;;;;;13.05;2.22;;;15.40;99.90;;;;;;5051347;28;20527;-77
2022/10/01 08:42:52;;;;;;;11.18;2.28;;;15.60;99.90;;;;;;5050404;28;20131;-77
2022/10/01 08:45:48;;;;;;;13.13;2.17;;;15.50;99.90;;;;;;5051752;28;20041;-76
2022/10/01 08:48:46;;;;;;;15.35;2.42;;;15.60;99.90;;;;;;5050472;28;20053;-77
2022/10/01 08:51:12;;;;;;;16.10;2.72;;;15.70;99.90;;;;;;5051847;28;20052;-77
2022/10/01 08:53:46;;;;;;;15.95;2.30;;;15.90;99.90;;;;;;5050165;28;20048;-76
2022/10/01 08:56:26;;;;;;;12.60;2.53;;;16.10;99.90;;;;;;5050313;28;20503;-79
2022/10/01 08:59:01;;;;;;;16.70;2.30;;;16.10;99.90;;;;;;5051000;28;20045;-77
2022/10/01 09:01:28;;;;;;;;;;;16.10;99.90;;;;;;5050213;28;20044;-83
2022/10/01 09:03:55;;;;;;;16.73;2.50;;;15.90;99.90;;;;;;5051306;28;19926;-80
2022/10/01 09:06:26;;;;;;;12.02;2.40;;;15.80;99.90;;;;;;5051260;28;20053;-76
2022/10/01 09:09:18;;;;;;;15.57;2.22;;;15.90;99.90;;;;;;5051360;28;20088;-77
2022/10/01 09:11:49;;;;;;;14.32;2.40;;;16.10;99.90;;;;;;5032558;28;20049;-81
2022/10/01 09:14:59;;;;;;;12.68;2.20;;;16.10;99.90;;;;;;5033012;28;20045;-79
2022/10/01 09:17:39;;;;;;;14.60;2.35;;;16.20;99.90;;;;;;4953199;28;20137;-76
2022/10/01 09:20:20;;;;;;;20.95;2.72;;;16.00;99.90;;;;;;4937879;28;20049;-76
2022/10/01 09:23:15;;;;;;;15.00;2.22;;;15.90;99.90;;;;;;4953816;28;20077;-76
2022/10/01 09:25:42;;;;;;;;;;;15.80;99.90;;;;;;4938129;28;20466;-76
2022/10/01 09:28:15;;;;;;;15.30;2.33;;;15.70;99.90;;;;;;4953360;28;19929;-76
2022/10/01 09:31:05;;;;;;;18.17;2.45;;;15.70;99.90;;;;;;4969804;28;20049;-76
2022/10/01 09:33:36;;;;;;;12.20;1.77;;;15.60;99.90;;;;;;4930323;29;20055;-81
2022/10/01 09:36:05;;;;;;;11.73;1.95;;;15.70;99.90;;;;;;4931312;29;20055;-75
2022/10/01 09:38:45;;;;;;;9.90;1.58;;;16.00;99.90;;;;;;4931150;29;20058;-77
2022/10/01 09:41:13;;;;;;;10.85;1.73;;;16.20;99.90;;;;;;4930854;29;20060;-76
2022/10/01 09:43:41;;;;;;;7.68;1.40;;;16.20;99.90;;;;;;4914438;29;20055;-75
2022/10/01 09:46:13;;;;;;;9.45;1.30;;;16.10;99.90;;;;;;4930940;29;20050;-74
2022/10/01 09:48:50;;;;;;;9.10;1.65;;;16.30;99.90;;;;;;4930961;29;20063;-77
2022/10/01 09:51:25;;;;;;;9.38;1.90;;;16.40;99.90;;;;;;4930700;29;20060;-76
2022/10/01 09:54:00;;;;;;;;;;;16.30;99.90;;;;;;4937255;28;20093;-80
2022/10/01 09:57:06;;;;;;;11.52;1.83;;;16.20;99.90;;;;;;5008121;28;19929;-75
2022/10/01 10:00:03;;;;;;;10.98;1.83;;;16.00;99.90;;;;;;4895894;29;20157;-80
2022/10/01 10:02:39;;;;;;;13.27;1.95;;;15.90;99.90;;;;;;4911228;29;20327;-78
2022/10/01 10:05:09;;;;;;;17.35;2.20;;;15.70;99.90;;;;;;4895543;29;20511;-81
2022/10/01 10:07:41;;;;;;;14.93;2.55;;;15.60;99.90;;;;;;4895501;29;20068;-82
2022/10/01 10:10:26;;;;;;;9.10;1.60;;;15.30;99.90;;;;;;4894943;29;20163;-82
2022/10/01 10:12:59;;;;;;;5.75;0.88;;;14.70;99.90;;;;;;4908163;29;20060;-79
2022/10/01 10:15:26;;;;;;;5.18;0.63;;;14.30;99.90;;;;;;4910662;29;20127;-78
2022/10/01 10:17:54;;;;;;;6.95;0.75;;;14.00;99.90;;;;;;4911141;29;20180;-76
2022/10/01 10:20:38;;;;;;;4.63;0.80;;;13.80;99.90;;;;;;4911137;29;20134;-77
2022/10/01 10:23:14;;;;;;;7.63;1.05;;;13.60;99.90;;;;;;4910674;29;20071;-78
2022/10/01 10:25:39;;;;;;;4.30;0.80;;;13.60;99.90;;;;;;4911294;29;20044;-76
2022/10/01 10:28:19;;;;;;;4.45;0.70;;;13.50;99.90;;;;;;4911174;29;20051;-79
2022/10/01 10:30:45;;;;;;;5.30;0.80;;;13.60;99.90;;;;;;4911150;29;20250;-76
2022/10/01 10:33:13;;;;;;;7.28;0.80;;;13.60;99.90;;;;;;4911191;29;20096;-77
2022/10/01 10:35:39;;;;;;;6.65;0.88;;;13.70;99.90;;;;;;4974227;28;20144;-77
2022/10/01 10:38:14;;;;;;;10.18;1.25;;;13.70;99.90;;;;;;5048528;28;20080;-74
2022/10/01 10:40:42;;;;;;;6.55;1.00;;;13.80;99.90;;;;;;5049171;28;20500;-79
2022/10/01 10:43:19;;;;;;;6.55;1.38;;;13.90;99.90;;;;;;5049174;28;20049;-77
2022/10/01 10:45:46;;;;;;;6.50;1.27;;;13.90;99.90;;;;;;5048917;28;20369;-77
2022/10/01 10:48:17;;;;;;;7.53;1.25;;;13.90;99.90;;;;;;5048924;28;20049;-77
2022/10/01 10:50:45;;;;;;;10.82;1.60;;;14.30;99.90;;;;;;5049162;28;20052;-78
2022/10/01 10:53:27;;;;;;;10.43;1.65;;;14.60;99.90;;;;;;5049256;28;20175;-77
2022/10/01 10:56:04;;;;;;;11.43;1.70;;;14.60;99.90;;;;;;5048735;28;20048;-78
2022/10/01 10:58:33;;;;;;;16.80;2.35;;;14.70;99.90;;;;;;5049056;28;20053;-79
2022/10/01 11:01:18;;;;;;;12.73;1.83;;;14.60;99.90;;;;;;5048553;28;20067;-80
2022/10/01 11:03:52;;;;;;;11.43;1.75;;;14.60;99.90;;;;;;5049096;28;20443;-79
2022/10/01 11:06:18;;;;;;;11.80;1.90;;;14.60;99.90;;;;;;5048013;28;20132;-78
2022/10/01 11:08:55;;;;;;;7.32;1.50;;;14.60;99.90;;;;;;5049036;28;20052;-77
2022/10/01 11:11:21;;;;;;;8.88;1.60;;;14.70;99.90;;;;;;5030888;28;20045;-76
2022/10/01 11:14:03;;;;;;;9.70;1.33;;;14.80;99.90;;;;;;5048675;28;20052;-77
2022/10/01 11:16:48;;;;;;;6.75;1.40;;;15.20;99.90;;;;;;5047556;28;20602;-77
2022/10/01 11:19:40;;;;;;;8.27;1.48;;;15.20;99.90;;;;;;5030361;28;20100;-78
2022/10/01 11:22:33;;;;;;;10.57;1.65;;;15.40;99.90;;;;;;5029965;28;20103;-77
2022/10/01 11:25:25;;;;;;;12.15;1.42;;;15.70;99.90;;;;;;5048810;28;20045;-79
2022/10/01 11:28:17;;;;;;;12.48;2.35;;;16.10;99.90;;;;;;5030639;28;20060;-78
2022/10/01 11:31:15;;;;;;;10.65;1.83;;;16.10;99.90;;;;;;5025895;28;20536;-78
2022/10/01 11:34:01;;;;;;;9.20;1.60;;;16.20;99.90;;;;;;5007502;28;20526;-78
2022/10/01 11:36:40;;;;;;;12.38;2.00;;;16.20;99.90;;;;;;5010322;28;20116;-78
2022/10/01 11:39:18;;;;;;;9.57;1.98;;;16.30;99.90;;;;;;5010298;28;20046;-80
2022/10/01 11:41:57;;;;;;;9.20;1.63;;;16.50;99.90;;;;;;4993976;28;20058;-79
2022/10/01 11:44:38;;;;;;;12.75;2.03;;;16.60;99.90;;;;;;5010611;28;20116;-79
2022/10/01 11:47:22;;;;;;;16.67;1.95;;;16.80;99.90;;;;;;5010040;28;20085;-78
2022/10/01 11:50:19;;;;;;;14.55;1.90;;;16.80;99.90;;;;;;5010426;28;20054;-79
2022/10/01 11:53:06;;;;;;;14.43;2.05;;;16.70;99.90;;;;;;4991049;28;20051;-79
2022/10/01 11:58:56;;;;;;;14.02;2.08;;;16.50;99.90;;;;;;4985156;28;20489;-76
2022/10/01 12:01:49;;;;;;;17.63;2.25;;;16.40;99.90;;;;;;5010122;28;20054;-79
2022/10/01 12:04:26;;;;;;;18.38;2.80;;;16.40;99.90;;;;;;4993375;28;20555;-78
2022/10/01 12:07:03;;;;;;;20.13;2.50;;;16.50;99.90;;;;;;5012632;28;20088;-78
2022/10/01 12:09:55;;;;;;;12.65;1.85;;;16.40;99.90;;;;;;5029584;28;20053;-79
2022/10/01 12:12:47;;;;;;;12.60;2.00;;;16.30;99.90;;;;;;5013330;28;20106;-77
2022/10/01 12:15:32;;;;;;;17.30;2.53;;;16.10;99.90;;;;;;5012765;28;20049;-77
2022/10/01 12:18:26;;;;;;;12.48;2.03;;;16.30;99.90;;;;;;5029687;28;20065;-77
2022/10/01 12:20:54;;;;;;;14.63;2.58;;;16.50;99.90;;;;;;5011119;28;20137;-79
2022/10/01 12:23:28;;;;;;;11.82;2.92;;;16.60;99.90;;;;;;5011327;28;20056;-77
2022/10/01 12:26:33;;;;;;;11.95;2.05;;;16.80;99.90;;;;;;4995986;28;20145;-78
2022/10/01 12:29:24;;;;;;;12.32;1.50;;;16.90;99.90;;;;;;5010287;28;20119;-78
2022/10/01 12:32:29;;;;;;;10.00;1.65;;;16.80;99.90;;;;;;5052058;28;20044;-78
2022/10/01 12:35:22;;;;;;;9.05;1.38;;;17.10;99.90;;;;;;5044762;28;20156;-77
2022/10/01 12:37:59;;;;;;;12.40;1.30;;;17.10;99.90;;;;;;5033686;28;20049;-79
2022/10/01 12:40:46;;;;;;;9.98;1.50;;;17.20;99.90;;;;;;5033701;28;20102;-78
2022/10/01 12:43:43;;;;;;;10.05;1.25;;;17.30;99.90;;;;;;5051589;28;20721;-78
2022/10/01 12:46:29;;;;;;;8.70;1.48;;;17.20;99.90;;;;;;5033331;28;20114;-77
2022/10/01 12:49:21;;;;;;;8.20;1.40;;;17.20;99.90;;;;;;5051556;28;20084;-78
2022/10/01 12:51:54;;;;;;;12.07;1.50;;;17.40;99.90;;;;;;5016907;28;20056;-77
2022/10/01 12:54:41;;;;;;;9.60;1.40;;;17.40;99.90;;;;;;5051604;28;20053;-77
2022/10/01 12:57:35;;;;;;;11.63;1.73;;;17.20;99.90;;;;;;5033902;28;20048;-79
2022/10/01 13:00:19;;;;;;;12.50;1.88;;;16.80;99.90;;;;;;5051380;28;20053;-79
2022/10/01 13:03:28;;;;;;;12.35;1.73;;;16.70;99.90;;;;;;5051454;28;20060;-79
2022/10/01 13:06:26;;;;;;;10.02;2.13;;;16.30;99.90;;;;;;5051016;28;20057;-79
2022/10/01 13:09:10;;;;;;;12.23;2.00;;;16.10;99.90;;;;;;5051408;28;20091;-77
2022/10/01 13:11:55;;;;;;;9.95;1.63;;;15.80;99.90;;;;;;5033415;28;20056;-79
2022/10/01 13:14:22;;;;;;;10.32;2.10;;;15.60;99.90;;;;;;5033331;28;20057;-78